Time;durP1;ratioP1;P1;durP2;ratioP2;P2;SDS_P1;SDS_P2;PMS_P1;PMS_P2;Temp;Humidity;BMP_temperature;BMP_pressure;BME280_temperature;BME280_humidity;BME280_pressure;Samples;Min_cycle;Max_cycle;Signal;HPM_P1;HPM_P2
2022/06/24 00:00:49;;;;;;;9.60;2.60;;;21.90;99.90;;;;;;1901050;75;21098;-77
2022/06/24 00:03:59;;;;;;;10.32;2.72;;;21.90;99.90;;;;;;1900376;75;21133;-77
2022/06/24 00:06:50;;;;;;;7.95;2.33;;;22.00;99.90;;;;;;1906712;75;21117;-77
2022/06/24 00:09:43;;;;;;;7.17;2.27;;;22.00;99.90;;;;;;1906476;75;21173;-77
2022/06/24 00:15:17;;;;;;;7.22;2.30;;;21.90;99.90;;;;;;1926397;72;22110;-78
2022/06/24 00:21:14;;;;;;;8.33;2.22;;;21.90;99.90;;;;;;1943076;72;22194;-78
2022/06/24 00:24:24;;;;;;;6.97;2.17;;;21.90;99.90;;;;;;1908124;75;21106;-78
2022/06/24 00:27:34;;;;;;;7.50;2.30;;;21.90;99.90;;;;;;1896342;74;21768;-78
2022/06/24 00:30:25;;;;;;;8.65;2.12;;;22.00;99.90;;;;;;1894707;75;21137;-78
2022/06/24 00:33:37;;;;;;;6.78;2.12;;;22.00;99.90;;;;;;1904212;75;21043;-78
2022/06/24 00:39:08;;;;;;;9.60;2.50;;;21.90;99.90;;;;;;1943046;72;22124;-78
2022/06/24 00:42:20;;;;;;;10.85;2.72;;;21.80;99.90;;;;;;1901702;75;21118;-77
2022/06/24 00:45:34;;;;;;;8.20;2.40;;;21.90;99.90;;;;;;1903151;75;21087;-78
2022/06/24 00:51:08;;;;;;;9.83;2.40;;;21.70;99.90;;;;;;1941715;72;22290;-78
2022/06/24 00:54:19;;;;;;;7.15;2.37;;;21.70;99.90;;;;;;1890072;75;21039;-77
2022/06/24 00:57:30;;;;;;;11.05;2.52;;;21.80;99.90;;;;;;1907148;75;21566;-77
2022/06/24 01:03:06;;;;;;;7.35;2.70;;;21.70;99.90;;;;;;1921183;72;28005;-78
2022/06/24 01:06:16;;;;;;;9.25;2.77;;;22.00;99.90;;;;;;1894860;75;21039;-78
2022/06/24 01:09:26;;;;;;;8.43;2.62;;;22.00;99.90;;;;;;1896026;75;21583;-78
2022/06/24 01:12:17;;;;;;;6.33;2.45;;;22.00;99.90;;;;;;1894774;75;21094;-78
2022/06/24 01:15:28;;;;;;;9.90;2.50;;;22.00;99.90;;;;;;1897932;75;21097;-78
2022/06/24 01:18:19;;;;;;;7.10;2.25;;;22.00;99.90;;;;;;1901215;75;21105;-78
2022/06/24 01:21:14;;;;;;;9.25;3.02;;;22.00;99.90;;;;;;1906366;75;21120;-78
2022/06/24 01:24:08;;;;;;;7.83;2.20;;;22.00;99.90;;;;;;1905842;75;21074;-78
2022/06/24 01:27:01;;;;;;;9.33;2.60;;;22.00;99.90;;;;;;1905407;75;21192;-78
2022/06/24 01:29:52;;;;;;;6.20;1.95;;;22.00;99.90;;;;;;1889173;75;21564;-78
2022/06/24 01:32:45;;;;;;;5.53;2.00;;;22.00;99.90;;;;;;1900168;75;21616;-78
2022/06/24 01:35:36;;;;;;;12.00;2.30;;;22.00;99.90;;;;;;1897054;74;21078;-78
2022/06/24 01:41:09;;;;;;;10.08;2.40;;;22.00;99.90;;;;;;1943153;72;22201;-78
2022/06/24 01:44:19;;;;;;;9.10;2.25;;;22.00;99.90;;;;;;1886403;75;21093;-77
2022/06/24 01:47:29;;;;;;;6.22;2.37;;;22.00;99.90;;;;;;1904299;75;21039;-77
2022/06/24 01:50:20;;;;;;;11.97;2.52;;;22.00;99.90;;;;;;1894194;75;21086;-78
2022/06/24 01:56:10;;;;;;;7.85;2.55;;;22.00;99.90;;;;;;1956480;72;22154;-78
2022/06/24 01:59:20;;;;;;;7.90;2.52;;;21.80;99.90;;;;;;1916807;74;21043;-78
2022/06/24 02:02:29;;;;;;;6.95;2.40;;;21.70;99.90;;;;;;1920032;74;21093;-78
2022/06/24 02:05:23;;;;;;;8.25;2.20;;;21.70;99.90;;;;;;1904977;74;21176;-78
2022/06/24 02:08:33;;;;;;;8.10;2.33;;;21.70;99.90;;;;;;1924791;74;21135;-78
2022/06/24 02:14:34;;;;;;;8.18;2.08;;;21.50;99.90;;;;;;1904855;74;21119;-78
2022/06/24 02:17:26;;;;;;;8.68;2.52;;;21.40;99.90;;;;;;1869607;76;21194;-78
2022/06/24 02:20:17;;;;;;;6.33;2.35;;;21.30;99.90;;;;;;1905302;75;21117;-78
2022/06/24 02:25:50;;;;;;;9.30;2.50;;;21.20;99.90;;;;;;1945089;72;22542;-78
2022/06/24 02:28:59;;;;;;;7.65;2.37;;;21.20;99.90;;;;;;1921478;73;21105;-78
2022/06/24 02:32:10;;;;;;;9.33;2.83;;;21.10;99.90;;;;;;1924382;73;21619;-78
2022/06/24 02:35:04;;;;;;;7.60;1.90;;;21.20;99.90;;;;;;1926362;73;21132;-77
2022/06/24 02:40:55;;;;;;;7.95;2.10;;;21.20;99.90;;;;;;1961597;72;22230;-78
2022/06/24 02:44:05;;;;;;;8.25;2.40;;;21.30;99.90;;;;;;1920777;74;21082;-78
2022/06/24 02:47:14;;;;;;;9.50;2.62;;;21.30;99.90;;;;;;1920100;73;21164;-78
2022/06/24 02:50:07;;;;;;;7.12;2.37;;;21.20;99.90;;;;;;1923388;74;21059;-78
2022/06/24 02:53:18;;;;;;;7.95;2.47;;;21.20;99.90;;;;;;1916572;75;21062;-78
2022/06/24 02:56:12;;;;;;;7.70;2.45;;;21.20;99.90;;;;;;1926170;73;21076;-78
2022/06/24 02:59:14;;;;;;;10.20;2.40;;;21.10;99.90;;;;;;1905531;74;21086;-78
2022/06/24 03:02:06;;;;;;;8.60;2.30;;;21.20;99.90;;;;;;1898133;74;21051;-78
2022/06/24 03:05:00;;;;;;;8.43;2.25;;;21.20;99.90;;;;;;1897765;75;21203;-78
2022/06/24 03:07:52;;;;;;;9.15;2.42;;;21.20;99.90;;;;;;1911106;74;21132;-78
2022/06/24 03:10:44;;;;;;;8.38;2.15;;;21.20;99.90;;;;;;1923842;73;21110;-78
2022/06/24 03:16:15;;;;;;;6.92;2.40;;;21.30;99.90;;;;;;1932652;72;22734;-78
2022/06/24 03:19:25;;;;;;;9.05;2.33;;;21.30;99.90;;;;;;1895045;75;21110;-78
2022/06/24 03:22:35;;;;;;;7.28;2.33;;;21.30;99.90;;;;;;1891721;75;21035;-78
2022/06/24 03:25:27;;;;;;;9.75;2.83;;;21.30;99.90;;;;;;1884634;75;21070;-78
2022/06/24 03:28:36;;;;;;;10.18;2.50;;;21.30;99.90;;;;;;1898736;75;21086;-78
2022/06/24 03:34:06;;;;;;;8.65;2.72;;;21.30;99.90;;;;;;1946535;72;22612;-78
2022/06/24 03:37:16;;;;;;;12.07;2.70;;;21.30;99.90;;;;;;1918334;73;21106;-78
2022/06/24 03:40:25;;;;;;;10.88;2.12;;;21.30;99.90;;;;;;1926357;73;21078;-78
2022/06/24 03:43:17;;;;;;;7.28;2.50;;;21.20;99.90;;;;;;1917523;75;21096;-78
2022/06/24 03:46:27;;;;;;;6.45;2.50;;;21.10;99.90;;;;;;1917649;75;21109;-78
2022/06/24 03:49:19;;;;;;;9.93;2.75;;;21.10;99.90;;;;;;1917523;73;21113;-78
2022/06/24 03:52:11;;;;;;;8.48;2.67;;;21.10;99.90;;;;;;1918145;73;21564;-78
2022/06/24 03:55:02;;;;;;;7.72;2.30;;;21.00;99.90;;;;;;1926186;73;21200;-78
2022/06/24 03:57:54;;;;;;;10.78;2.70;;;21.00;99.90;;;;;;1925921;73;21585;-78
2022/06/24 04:00:45;;;;;;;7.65;2.37;;;21.00;99.90;;;;;;1917702;73;21510;-78
2022/06/24 04:03:37;;;;;;;8.85;2.37;;;20.90;99.90;;;;;;1924891;74;21123;-78
2022/06/24 04:09:08;;;;;;;9.95;2.42;;;20.80;99.90;;;;;;1946457;72;22306;-79
2022/06/24 04:15:14;;;;;;;9.60;2.40;;;20.80;99.90;;;;;;1941238;72;22235;-79
2022/06/24 04:18:24;;;;;;;6.35;2.90;;;20.90;99.90;;;;;;1887011;75;21180;-79
2022/06/24 04:24:13;;;;;;;8.98;2.75;;;20.70;99.90;;;;;;1936907;72;22203;-78
2022/06/24 04:27:22;;;;;;;9.83;2.58;;;20.70;99.90;;;;;;1885469;74;21031;-78
2022/06/24 04:30:32;;;;;;;7.78;2.45;;;20.70;99.90;;;;;;1899559;75;21154;-79
2022/06/24 04:33:23;;;;;;;7.55;2.58;;;20.70;99.90;;;;;;1895069;75;21141;-78
2022/06/24 04:39:13;;;;;;;6.75;2.50;;;20.80;99.90;;;;;;1956989;72;22192;-78
2022/06/24 04:42:23;;;;;;;6.65;2.37;;;20.80;99.90;;;;;;1911683;75;21084;-78
2022/06/24 04:45:32;;;;;;;11.30;2.58;;;20.80;99.90;;;;;;1911757;75;21047;-78
2022/06/24 04:48:24;;;;;;;6.55;2.40;;;20.80;99.90;;;;;;1921466;74;21113;-78
2022/06/24 04:54:13;;;;;;;8.48;2.70;;;20.80;99.90;;;;;;1925450;72;22146;-79
2022/06/24 04:57:23;;;;;;;7.55;2.80;;;20.80;99.90;;;;;;1881505;75;21124;-78
2022/06/24 05:00:33;;;;;;;7.00;2.72;;;20.90;99.90;;;;;;1879706;75;21105;-78
2022/06/24 05:03:24;;;;;;;8.98;3.15;;;20.80;99.90;;;;;;1912079;75;21226;-78
2022/06/24 05:06:35;;;;;;;10.80;2.55;;;20.70;99.90;;;;;;1913783;75;21626;-80
2022/06/24 05:09:26;;;;;;;14.28;3.17;;;20.80;99.90;;;;;;1840969;77;21071;-80
2022/06/24 05:14:57;;;;;;;7.47;2.77;;;20.80;99.90;;;;;;1946545;72;22220;-79
2022/06/24 05:18:08;;;;;;;5.17;2.42;;;20.70;99.90;;;;;;1929947;73;21138;-78
2022/06/24 05:21:18;;;;;;;9.30;2.87;;;20.60;99.90;;;;;;1928901;73;21106;-78
2022/06/24 05:24:10;;;;;;;8.35;3.08;;;20.80;99.90;;;;;;1932447;73;21043;-78
2022/06/24 05:27:20;;;;;;;8.35;3.37;;;20.80;99.90;;;;;;1919057;73;21105;-78
2022/06/24 05:30:13;;;;;;;8.90;3.67;;;20.80;99.90;;;;;;1917536;73;21062;-79
2022/06/24 05:33:05;;;;;;;9.58;3.02;;;20.90;99.90;;;;;;1923466;73;21092;-78
2022/06/24 05:35:58;;;;;;;7.55;3.10;;;21.00;99.90;;;;;;1920060;73;21050;-78
2022/06/24 05:41:27;;;;;;;8.10;3.55;;;21.20;99.90;;;;;;1946551;72;22139;-86
2022/06/24 05:44:37;;;;;;;11.08;3.10;;;21.30;99.90;;;;;;1893078;75;21036;-87
2022/06/24 05:47:47;;;;;;;10.38;3.35;;;21.40;99.90;;;;;;1886335;75;21189;-88
2022/06/24 05:50:39;;;;;;;8.13;2.90;;;21.50;99.90;;;;;;1885915;75;21178;-86
2022/06/24 05:59:38;;;;;;;6.08;2.42;;;21.40;99.90;;;;;;1936090;72;22134;-84
2022/06/24 06:05:29;;;;;;;8.20;2.60;;;21.30;99.90;;;;;;1933075;72;22189;-82
2022/06/24 06:11:20;;;;;;;6.15;2.55;;;21.20;99.90;;;;;;1934185;72;22174;-83
2022/06/24 06:14:29;;;;;;;9.45;3.52;;;21.30;99.90;;;;;;1898786;75;21158;-83
2022/06/24 06:17:40;;;;;;;8.55;3.00;;;21.40;99.90;;;;;;1882798;75;21237;-84
2022/06/24 06:20:32;;;;;;;11.38;3.08;;;21.60;99.90;;;;;;1881489;75;21219;-83
2022/06/24 06:23:43;;;;;;;5.67;2.50;;;21.60;99.90;;;;;;1876209;75;21206;-83
2022/06/24 06:29:13;;;;;;;9.50;2.95;;;21.60;99.90;;;;;;1921305;72;22152;-84
2022/06/24 06:32:23;;;;;;;10.63;3.20;;;21.70;99.90;;;;;;1902151;75;21070;-83
2022/06/24 06:35:33;;;;;;;8.75;3.25;;;21.80;99.90;;;;;;1911910;74;21081;-83
2022/06/24 06:38:24;;;;;;;10.50;2.90;;;21.90;99.90;;;;;;1919038;74;21134;-83
2022/06/24 06:41:34;;;;;;;11.83;2.92;;;22.00;99.90;;;;;;1918427;74;21124;-83
2022/06/24 06:44:26;;;;;;;7.83;3.02;;;22.10;99.90;;;;;;1918961;74;21082;-83
2022/06/24 06:47:18;;;;;;;9.05;2.75;;;22.30;99.90;;;;;;1872275;76;21079;-84
2022/06/24 06:50:12;;;;;;;9.88;2.85;;;22.30;99.90;;;;;;1911576;74;21647;-83
2022/06/24 06:53:04;;;;;;;10.40;3.30;;;22.40;99.90;;;;;;1880652;76;21558;-89
2022/06/24 06:55:56;;;;;;;11.40;3.20;;;22.50;99.90;;;;;;1917847;75;21091;-89
2022/06/24 06:58:50;;;;;;;10.82;3.58;;;22.60;99.90;;;;;;1903687;75;21179;-88
2022/06/24 07:04:22;;;;;;;11.78;2.87;;;22.60;99.90;;;;;;1960633;72;22086;-88
2022/06/24 07:10:13;;;;;;;8.98;3.17;;;22.70;99.90;;;;;;1930377;72;22149;-88
2022/06/24 07:13:23;;;;;;;7.65;2.98;;;22.70;99.90;;;;;;1896808;75;21127;-88
2022/06/24 07:16:33;;;;;;;12.23;3.00;;;22.60;99.90;;;;;;1897981;75;21160;-84
2022/06/24 07:19:25;;;;;;;12.28;5.05;;;22.60;99.90;;;;;;1905318;75;21240;-83
2022/06/24 07:22:35;;;;;;;12.55;5.10;;;22.60;99.90;;;;;;1899027;75;21344;-84
2022/06/24 07:25:26;;;;;;;9.03;3.40;;;22.50;99.90;;;;;;1888031;74;21082;-83
2022/06/24 07:28:18;;;;;;;8.15;3.27;;;22.60;99.90;;;;;;1889636;75;21133;-85
2022/06/24 07:31:18;;;;;;;13.15;4.30;;;22.60;99.90;;;;;;1898230;75;21590;-84
2022/06/24 07:34:10;;;;;;;8.40;2.85;;;22.60;99.90;;;;;;1886077;74;21098;-89
2022/06/24 07:37:03;;;;;;;10.72;3.50;;;22.50;99.90;;;;;;1900389;75;21127;-89
2022/06/24 07:39:56;;;;;;;8.70;3.42;;;22.50;99.90;;;;;;1883790;75;21147;-88
2022/06/24 07:42:47;;;;;;;10.25;3.22;;;22.40;99.90;;;;;;1909384;73;21156;-84
2022/06/24 07:45:39;;;;;;;10.05;3.58;;;22.30;99.90;;;;;;1897515;73;21211;-84
2022/06/24 07:48:30;;;;;;;10.88;3.37;;;22.20;99.90;;;;;;1906652;75;21581;-84
2022/06/24 07:54:05;;;;;;;7.85;2.87;;;22.10;99.90;;;;;;1933663;72;22169;-83
2022/06/24 07:59:53;;;;;;;7.33;2.92;;;21.80;99.90;;;;;;1940174;72;22225;-84
2022/06/24 08:03:03;;;;;;;10.43;3.42;;;21.70;99.90;;;;;;1888087;75;21533;-84
2022/06/24 08:06:13;;;;;;;15.48;3.40;;;21.60;99.90;;;;;;1883484;75;21197;-84
2022/06/24 08:09:05;;;;;;;12.82;3.15;;;21.50;99.90;;;;;;1892498;75;21886;-88
2022/06/24 08:12:15;;;;;;;8.65;2.90;;;21.50;99.90;;;;;;1884071;75;21161;-85
2022/06/24 08:15:08;;;;;;;10.05;3.27;;;21.50;99.90;;;;;;1884391;75;21051;-84
2022/06/24 08:17:59;;;;;;;10.05;2.80;;;21.50;99.90;;;;;;1896654;75;21458;-84
2022/06/24 08:20:52;;;;;;;9.93;3.42;;;21.40;99.90;;;;;;1897882;73;21087;-84
2022/06/24 08:26:23;;;;;;;11.43;2.90;;;21.30;99.90;;;;;;1938956;72;22799;-84
2022/06/24 08:29:33;;;;;;;10.90;2.80;;;21.20;99.90;;;;;;1893376;75;21176;-83
2022/06/24 08:35:22;;;;;;;9.43;3.27;;;20.80;99.90;;;;;;1960274;72;22197;-84
2022/06/24 08:41:14;;;;;;;5.62;1.50;;;20.50;99.90;;;;;;1918954;72;22196;-86
2022/06/24 08:44:24;;;;;;;2.17;0.95;;;20.30;99.90;;;;;;1914947;74;21085;-86
2022/06/24 08:50:14;;;;;;;7.55;1.02;;;18.70;99.90;;;;;;1935422;72;22195;-85
2022/06/24 08:53:29;;;;;;;1.77;0.62;;;18.20;99.90;;;;;;1904094;75;21042;-86
2022/06/24 08:56:40;;;;;;;3.58;0.40;;;17.80;99.90;;;;;;1897398;75;21569;-85
2022/06/24 08:59:33;;;;;;;1.72;0.55;;;17.40;99.90;;;;;;1897292;75;21247;-94
2022/06/24 09:02:42;;;;;;;0.15;0.10;;;17.10;99.90;;;;;;1896707;75;21036;-84
2022/06/24 09:05:36;;;;;;;0.93;0.10;;;17.00;99.90;;;;;;1896931;75;21636;-88
2022/06/24 09:08:34;;;;;;;1.20;0.17;;;17.00;99.90;;;;;;1892276;75;21065;-92
2022/06/24 09:14:10;;;;;;;0.37;0.10;;;17.10;99.90;;;;;;1933262;72;22106;-85
2022/06/24 09:17:59;;;;;;;;;;;;;;;;;;;;;
2022/06/24 09:21:14;;;;;;;0.40;0.05;;;17.20;99.90;;;;;;1907792;74;21206;-92
2022/06/24 09:24:10;;;;;;;1.10;0.28;;;17.20;99.90;;;;;;1905855;74;21102;-93
2022/06/24 09:27:11;;;;;;;0.62;0.20;;;17.20;99.90;;;;;;1914939;73;21105;-93
2022/06/24 09:30:17;;;;;;;1.75;0.55;;;17.20;99.90;;;;;;1903885;73;21107;-91
2022/06/24 09:33:19;;;;;;;4.15;0.80;;;17.10;99.90;;;;;;1914489;74;21216;-91
2022/06/24 09:36:16;;;;;;;4.87;1.10;;;17.20;99.90;;;;;;1916109;73;21104;-90
2022/06/24 09:39:12;;;;;;;2.42;0.85;;;17.20;99.90;;;;;;1921322;73;21144;-89
2022/06/24 09:42:09;;;;;;;2.12;0.55;;;17.30;99.90;;;;;;1910663;74;21539;-90
2022/06/24 09:45:10;;;;;;;2.30;0.70;;;17.30;99.90;;;;;;1917702;73;21037;-90
2022/06/24 09:48:09;;;;;;;1.85;0.47;;;17.30;99.90;;;;;;1922299;74;21161;-92
2022/06/24 09:51:04;;;;;;;5.58;1.25;;;17.40;99.90;;;;;;1908715;74;21231;-90
2022/06/24 09:53:59;;;;;;;3.02;0.45;;;17.40;99.90;;;;;;1902139;74;21138;-91
2022/06/24 09:56:52;;;;;;;0.93;0.40;;;17.60;99.90;;;;;;1912875;74;21226;-88
2022/06/24 10:03:07;;;;;;;3.30;0.70;;;17.70;99.90;;;;;;1902482;74;21277;-88
2022/06/24 10:06:02;;;;;;;1.50;0.50;;;17.80;99.90;;;;;;1917601;74;21125;-94
2022/06/24 10:08:55;;;;;;;1.62;0.80;;;17.80;99.90;;;;;;1910683;74;21074;-92
2022/06/24 10:11:50;;;;;;;2.00;0.98;;;17.80;99.90;;;;;;1911445;74;21167;-93
2022/06/24 10:14:42;;;;;;;2.40;0.88;;;18.00;99.90;;;;;;1859925;75;21130;-93
2022/06/24 10:17:36;;;;;;;2.08;1.20;;;18.20;99.90;;;;;;1858619;77;21143;-92
2022/06/24 10:20:29;;;;;;;1.40;0.55;;;18.40;99.90;;;;;;1853067;77;21280;-92
2022/06/24 10:23:45;;;;;;;2.17;0.50;;;18.80;99.90;;;;;;1861377;77;21583;-93
2022/06/24 10:26:39;;;;;;;2.20;0.55;;;19.20;99.90;;;;;;1851748;77;21165;-94
2022/06/24 10:29:32;;;;;;;1.47;0.50;;;19.40;99.90;;;;;;1830149;78;21085;-95
2022/06/24 10:32:25;;;;;;;1.85;0.30;;;19.40;99.90;;;;;;1831752;78;21572;-96
2022/06/24 10:35:18;;;;;;;1.15;0.30;;;19.30;99.90;;;;;;1833679;77;21137;-81
2022/06/24 10:38:09;;;;;;;0.93;0.40;;;19.20;99.90;;;;;;1852441;77;21121;-81
2022/06/24 10:41:03;;;;;;;0.80;0.40;;;19.20;99.90;;;;;;1850358;77;21273;-81
2022/06/24 11:03:02;;;;;;;1.42;1.00;;;19.10;99.90;;;;;;1948374;72;22182;-80
2022/06/24 11:06:12;;;;;;;2.95;0.88;;;19.20;99.90;;;;;;1917275;73;21136;-81
2022/06/24 11:09:22;;;;;;;1.02;0.70;;;19.30;99.90;;;;;;1921436;73;21200;-81
2022/06/24 11:15:14;;;;;;;1.45;0.72;;;19.20;99.90;;;;;;1935455;72;22252;-81
2022/06/24 11:18:27;;;;;;;3.87;2.42;;;19.20;99.90;;;;;;1904723;75;21133;-81
2022/06/24 11:21:48;;;;;;;3.92;1.00;;;19.20;99.90;;;;;;1897026;74;21246;-82
2022/06/24 11:24:41;;;;;;;1.90;0.80;;;19.30;99.90;;;;;;1901151;74;21133;-82
2022/06/24 11:27:52;;;;;;;1.15;0.70;;;19.20;99.90;;;;;;1900540;75;21102;-81
2022/06/24 11:30:44;;;;;;;1.57;0.85;;;19.20;99.90;;;;;;1896553;74;21054;-81
2022/06/24 11:33:36;;;;;;;2.17;1.10;;;19.30;99.90;;;;;;1889792;75;21204;-81
2022/06/24 11:36:28;;;;;;;1.35;0.80;;;19.40;99.90;;;;;;1899009;75;21629;-80
2022/06/24 11:39:19;;;;;;;2.70;1.00;;;19.30;99.90;;;;;;1895982;75;21102;-80
2022/06/24 11:42:11;;;;;;;2.80;0.85;;;19.50;99.90;;;;;;1897679;75;21110;-79
2022/06/24 11:45:03;;;;;;;4.33;1.00;;;19.60;99.90;;;;;;1895085;75;21173;-79
2022/06/24 11:47:54;;;;;;;4.60;0.70;;;19.70;99.90;;;;;;1909780;75;21142;-80
2022/06/24 11:50:48;;;;;;;2.37;0.90;;;19.50;99.90;;;;;;1894543;75;21590;-80
2022/06/24 11:53:40;;;;;;;2.77;1.40;;;19.40;99.90;;;;;;1896705;75;21183;-79
2022/06/24 11:56:35;;;;;;;2.37;0.95;;;19.40;99.90;;;;;;1903438;75;21204;-91
2022/06/24 11:59:27;;;;;;;3.15;1.20;;;19.50;99.90;;;;;;1903837;75;21107;-80
2022/06/24 12:02:19;;;;;;;1.77;0.80;;;19.60;99.90;;;;;;1897659;75;21104;-80
2022/06/24 12:05:11;;;;;;;8.83;1.10;;;19.80;99.90;;;;;;1896487;75;21063;-90
2022/06/24 12:08:03;;;;;;;1.22;0.40;;;20.10;99.90;;;;;;1897189;75;21154;-91
2022/06/24 12:10:56;;;;;;;2.37;0.40;;;20.30;99.90;;;;;;1905406;75;21140;-81
2022/06/24 12:13:58;;;;;;;0.72;0.30;;;20.30;99.90;;;;;;1894170;75;21107;-81
2022/06/24 12:16:59;;;;;;;1.90;0.30;;;20.60;99.90;;;;;;1903296;75;21074;-81
2022/06/24 12:20:01;;;;;;;0.95;0.40;;;21.10;99.90;;;;;;1901534;75;21110;-82
2022/06/24 12:23:18;;;;;;;0.62;0.50;;;21.20;99.90;;;;;;1897609;75;21051;-80
2022/06/24 12:26:15;;;;;;;1.60;0.40;;;21.80;99.90;;;;;;1898049;75;21139;-81
2022/06/24 12:29:07;;;;;;;0.23;0.20;;;22.40;99.90;;;;;;1894598;75;21094;-81
2022/06/24 12:31:59;;;;;;;1.37;0.53;;;22.40;99.90;;;;;;1913320;75;21047;-90
2022/06/24 12:34:55;;;;;;;0.68;0.33;;;22.20;99.90;;;;;;1905572;75;21044;-89
2022/06/24 12:37:54;;;;;;;0.50;0.30;;;22.30;99.90;;;;;;1901171;75;21521;-90
2022/06/24 12:40:46;;;;;;;0.30;0.30;;;22.40;99.90;;;;;;1903563;75;21169;-90
2022/06/24 12:43:37;;;;;;;0.50;0.20;;;22.30;99.90;;;;;;1884346;76;21055;-89
2022/06/24 12:46:32;;;;;;;5.22;2.08;;;22.40;99.90;;;;;;1913837;74;21151;-89
2022/06/24 12:52:38;;;;;;;1.25;0.90;;;22.90;99.90;;;;;;1903781;75;21150;-89
2022/06/24 12:55:31;;;;;;;0.90;0.70;;;23.20;99.90;;;;;;1901474;75;21137;-82
2022/06/24 12:58:23;;;;;;;0.42;0.33;;;23.60;99.90;;;;;;1906063;75;21775;-82
2022/06/24 13:01:15;;;;;;;1.30;0.30;;;23.60;99.90;;;;;;1889165;75;21106;-81
2022/06/24 13:04:06;;;;;;;3.00;0.93;;;23.80;99.90;;;;;;1895287;75;21058;-82
2022/06/24 13:06:58;;;;;;;1.45;0.50;;;23.90;99.90;;;;;;1899863;75;21183;-82
2022/06/24 13:09:50;;;;;;;0.50;0.40;;;23.90;99.90;;;;;;1884052;76;21102;-82
2022/06/24 13:12:41;;;;;;;0.98;0.42;;;24.00;99.90;;;;;;1913023;75;21120;-82
2022/06/24 13:15:34;;;;;;;3.58;0.40;;;23.90;99.90;;;;;;1901031;74;21141;-83
2022/06/24 13:18:26;;;;;;;1.30;0.60;;;24.20;99.90;;;;;;1913967;74;21116;-83
2022/06/24 13:21:17;;;;;;;1.37;0.40;;;24.50;99.90;;;;;;1913061;74;21062;-88
2022/06/24 13:24:08;;;;;;;1.95;0.50;;;24.90;99.90;;;;;;1910530;74;21124;-87
2022/06/24 13:27:02;;;;;;;1.25;0.30;;;25.10;99.90;;;;;;1910449;74;21640;-88
2022/06/24 13:29:54;;;;;;;0.88;0.60;;;25.30;99.90;;;;;;1912967;74;21065;-87
2022/06/24 13:32:45;;;;;;;0.95;0.50;;;25.30;99.90;;;;;;1914738;74;21094;-87
2022/06/24 13:35:36;;;;;;;2.00;0.55;;;25.30;99.90;;;;;;1910674;74;21481;-87
2022/06/24 13:38:28;;;;;;;0.98;0.50;;;25.40;99.90;;;;;;1910595;74;21058;-87
2022/06/24 13:41:20;;;;;;;0.90;0.40;;;25.40;99.90;;;;;;1933134;74;21097;-88
2022/06/24 13:44:11;;;;;;;2.87;0.40;;;25.50;99.90;;;;;;1918214;74;21059;-87
2022/06/24 13:47:03;;;;;;;1.98;0.50;;;25.50;99.90;;;;;;1845765;77;21243;-87
2022/06/24 13:49:58;;;;;;;1.55;0.42;;;25.40;99.90;;;;;;1899804;75;21556;-87
2022/06/24 13:52:47;;;;;;;1.40;0.50;;;26.00;99.90;;;;;;1846057;77;21062;-87
2022/06/24 13:55:39;;;;;;;1.22;0.50;;;27.10;99.90;;;;;;1933172;74;21059;-87
2022/06/24 13:58:31;;;;;;;0.33;0.33;;;27.80;99.90;;;;;;1911817;74;21042;-87
2022/06/24 14:01:23;;;;;;;0.85;0.40;;;27.60;99.90;;;;;;1933020;74;21112;-87
2022/06/24 14:04:14;;;;;;;2.12;0.50;;;27.20;99.90;;;;;;1910655;74;21083;-87
2022/06/24 14:07:08;;;;;;;0.53;0.50;;;27.30;99.90;;;;;;1913938;74;21107;-87
2022/06/24 14:09:59;;;;;;;1.27;0.40;;;27.40;99.90;;;;;;1913779;74;21497;-87
2022/06/24 14:12:52;;;;;;;0.85;0.45;;;27.80;99.90;;;;;;1906392;74;21109;-86
2022/06/24 14:15:47;;;;;;;0.72;0.30;;;27.40;99.90;;;;;;1880631;76;21091;-86
2022/06/24 14:18:38;;;;;;;0.57;0.30;;;27.60;99.90;;;;;;1824341;77;21072;-86
2022/06/24 14:21:31;;;;;;;1.85;0.50;;;27.90;99.90;;;;;;1824593;78;21155;-86
2022/06/24 14:24:35;;;;;;;0.65;0.40;;;28.80;99.90;;;;;;1833470;77;21533;-87
2022/06/24 14:27:27;;;;;;;1.55;0.62;;;29.00;99.90;;;;;;1882770;75;21059;-85
2022/06/24 14:30:20;;;;;;;1.85;0.78;;;28.60;99.90;;;;;;1894978;75;21232;-87
2022/06/24 14:33:12;;;;;;;0.82;0.60;;;28.90;99.90;;;;;;1883526;75;21185;-86
2022/06/24 14:36:04;;;;;;;0.95;0.35;;;29.80;99.90;;;;;;1888569;75;21043;-86
2022/06/24 14:42:07;;;;;;;1.40;0.78;;;29.50;99.90;;;;;;1871967;75;21486;-86
2022/06/24 14:44:58;;;;;;;2.00;0.78;;;29.50;99.90;;;;;;1872101;75;21163;-85
2022/06/24 14:47:50;;;;;;;2.20;2.00;;;29.50;99.90;;;;;;1909739;74;21525;-85
2022/06/24 14:50:41;;;;;;;0.40;0.40;;;29.30;99.90;;;;;;1900376;75;21055;-85
2022/06/24 14:53:33;;;;;;;1.35;0.65;;;29.30;99.90;;;;;;1883351;75;21100;-87
2022/06/24 14:56:25;;;;;;;1.10;0.60;;;29.70;99.90;;;;;;1888654;75;21109;-86
2022/06/24 14:59:16;;;;;;;2.55;0.60;;;30.30;99.90;;;;;;1906881;74;21156;-88
2022/06/24 15:02:10;;;;;;;0.55;0.53;;;30.60;99.90;;;;;;1919791;74;21161;-87
2022/06/24 15:05:02;;;;;;;1.60;0.72;;;31.50;99.90;;;;;;1884738;75;21133;-86
2022/06/24 15:07:55;;;;;;;0.95;0.40;;;31.30;99.90;;;;;;1894495;75;21138;-88
2022/06/24 15:10:49;;;;;;;0.50;0.30;;;30.40;99.90;;;;;;1892479;75;21849;-87
2022/06/24 15:13:41;;;;;;;1.30;1.02;;;30.30;99.90;;;;;;1891524;75;21093;-88
2022/06/24 15:16:33;;;;;;;1.12;0.40;;;30.30;99.90;;;;;;1886533;75;21048;-86
2022/06/24 15:19:24;;;;;;;1.15;0.50;;;29.20;99.90;;;;;;1859786;76;21157;-87
2022/06/24 15:22:17;;;;;;;1.05;0.30;;;29.70;99.90;;;;;;1859763;76;21092;-86
2022/06/24 15:25:10;;;;;;;0.65;0.40;;;29.70;99.90;;;;;;1860451;76;21074;-87
2022/06/24 15:28:02;;;;;;;1.80;0.50;;;31.10;99.90;;;;;;1865743;76;21062;-87
2022/06/24 15:30:54;;;;;;;2.55;0.60;;;32.60;99.90;;;;;;1870296;76;21485;-87
2022/06/24 15:33:45;;;;;;;1.57;0.40;;;33.90;99.10;;;;;;1871076;76;21235;-87
2022/06/24 15:36:37;;;;;;;1.27;0.40;;;33.80;98.20;;;;;;1872621;76;21062;-88
2022/06/24 15:39:29;;;;;;;1.32;0.35;;;34.60;96.30;;;;;;1881827;76;21123;-88
2022/06/24 15:42:21;;;;;;;1.27;0.65;;;34.90;94.00;;;;;;1864252;76;21176;-88
2022/06/24 15:45:13;;;;;;;1.10;0.50;;;35.20;92.20;;;;;;1861643;76;21101;-89
2022/06/24 15:48:06;;;;;;;1.57;0.68;;;35.50;91.20;;;;;;1878808;76;21122;-89
2022/06/24 15:50:57;;;;;;;1.05;0.50;;;35.30;90.40;;;;;;1868491;76;21054;-88
2022/06/24 15:53:49;;;;;;;0.68;0.40;;;35.40;86.80;;;;;;1881074;76;21062;-88
2022/06/24 15:56:41;;;;;;;2.40;0.33;;;34.60;87.10;;;;;;1851410;76;21073;-88
2022/06/24 15:59:32;;;;;;;0.78;0.42;;;33.50;88.60;;;;;;1849256;77;21185;-88
2022/06/24 16:02:24;;;;;;;2.42;0.40;;;33.80;87.60;;;;;;1867657;76;21115;-88
2022/06/24 16:05:16;;;;;;;0.93;0.35;;;33.90;87.00;;;;;;1865844;76;21115;-89
2022/06/24 16:08:08;;;;;;;1.00;0.30;;;34.10;86.70;;;;;;1850109;77;21124;-88
2022/06/24 16:11:03;;;;;;;0.82;0.40;;;33.70;84.10;;;;;;1855179;76;21137;-88
2022/06/24 16:13:57;;;;;;;1.47;0.40;;;34.00;83.50;;;;;;1880461;76;21111;-86
2022/06/24 16:16:50;;;;;;;0.80;0.42;;;34.40;82.50;;;;;;1867039;76;21151;-87
2022/06/24 16:19:41;;;;;;;0.30;0.30;;;34.40;81.90;;;;;;1888887;74;21183;-87
2022/06/24 16:22:35;;;;;;;1.45;0.50;;;33.10;83.20;;;;;;1902792;74;21124;-88
2022/06/24 16:28:41;;;;;;;4.65;0.57;;;31.30;87.60;;;;;;1904454;74;21126;-87
2022/06/24 16:31:33;;;;;;;1.92;0.50;;;29.70;92.90;;;;;;1926775;74;21105;-86
2022/06/24 16:34:24;;;;;;;0.55;0.40;;;28.40;96.00;;;;;;1908210;74;21498;-87
2022/06/24 16:37:16;;;;;;;1.10;0.40;;;27.80;98.80;;;;;;1904007;74;21148;-87
2022/06/24 16:40:13;;;;;;;2.83;0.30;;;27.20;99.90;;;;;;1900243;74;21141;-87
2022/06/24 16:43:19;;;;;;;1.32;0.30;;;27.00;99.90;;;;;;1918869;74;21089;-87
2022/06/24 16:46:12;;;;;;;1.62;0.30;;;26.40;99.90;;;;;;1906765;74;21058;-86
2022/06/24 16:49:04;;;;;;;2.75;0.60;;;26.70;99.90;;;;;;1894075;76;21176;-87
2022/06/24 16:51:56;;;;;;;0.40;0.40;;;28.20;99.90;;;;;;1903992;74;21043;-86
2022/06/24 16:54:47;;;;;;;1.55;0.40;;;28.40;99.90;;;;;;1904233;74;21181;-87
2022/06/24 16:57:39;;;;;;;1.22;0.40;;;27.50;99.90;;;;;;1926508;74;21076;-86
2022/06/24 17:00:32;;;;;;;1.37;0.40;;;27.90;99.90;;;;;;1909146;74;21129;-86
2022/06/24 17:03:27;;;;;;;0.40;0.30;;;28.60;99.90;;;;;;1893767;76;21139;-86
2022/06/24 17:06:19;;;;;;;1.00;0.40;;;28.70;99.90;;;;;;1901536;74;21124;-87
2022/06/24 17:09:40;;;;;;;0.70;0.37;;;27.80;99.90;;;;;;1924452;74;21097;-86
2022/06/24 17:12:31;;;;;;;0.55;0.40;;;26.80;99.90;;;;;;1904589;74;21080;-86
2022/06/24 17:15:23;;;;;;;1.05;0.40;;;26.20;99.90;;;;;;1904333;74;21126;-86
2022/06/24 17:18:15;;;;;;;1.05;0.50;;;26.00;99.90;;;;;;1909528;74;21123;-86
2022/06/24 17:21:08;;;;;;;1.45;0.40;;;25.80;99.90;;;;;;1905621;74;21389;-86
2022/06/24 17:24:04;;;;;;;0.50;0.40;;;25.60;99.90;;;;;;1904433;74;21643;-86
2022/06/24 17:26:55;;;;;;;0.93;0.60;;;25.90;99.90;;;;;;1904535;74;21123;-86